logo
Rechercher aéroport 
image banner adimage banner adimage banner ad
image banner ad

LLBL - Beilinson Hospital

Situé à פ"ת, Israel

ICAO - , IATA -

Données fournies par Airmate  

Information générale

Coordonnées: N32°5'13" E34°51'54"
Élévation : 114 feet MSL.
Variation magnétique : 5° East
Voir autres Aéroports à Tel Aviv District

Données opérationnelles

Special qualification required
Heure actuelle UTC:
Heure actuelle locale:
Météo à : LLBG - Tel-Aviv/Ben-Gurion ( 9 km )
METAR: LLBG 180050Z 17004KT CAVOK 20/13 Q1015 NOSIG
TAF: TAF LLBG 172308Z 1800/1824 VRB04KT CAVOK BECMG 1807/1809 32012KT BECMG 1815/1817 36005KT BECMG 1818/1820 VRB04KT TX32/1811Z TN19/1802Z
Voir NOTAMs / SUP AIP / TFR affectant cet aéroport [VIEW]
Fréquences de communication: [VIEW]

Pistes:

Coordonnées de l'aéroport

Adresse: פ"ת Israel

Vue satellite de LLBL